Time;durP1;ratioP1;P1;durP2;ratioP2;P2;SDS_P1;SDS_P2;PMS_P1;PMS_P2;Temp;Humidity;BMP_temperature;BMP_pressure;BME280_temperature;BME280_humidity;BME280_pressure;Samples;Min_cycle;Max_cycle;Signal;HPM_P1;HPM_P2
2023/11/02 00:01:40;;;;;;;;;;;;;;;;;;4998734;28;20000;-68
2023/11/02 00:04:05;;;;;;;;;;;;;;;;;;4997877;28;20329;-68
2023/11/02 00:06:30;;;;;;;;;;;;;;;;;;4998098;28;19917;-68
2023/11/02 00:08:55;;;;;;;;;;;;;;;;;;4997777;28;19910;-67
2023/11/02 00:11:20;;;;;;;;;;;;;;;;;;4997764;28;19920;-67
2023/11/02 00:13:50;;;;;;;;;;;;;;;;;;4997401;28;19910;-67
2023/11/02 00:16:15;;;;;;;;;;;;;;;;;;4997341;28;19910;-67
2023/11/02 00:18:40;;;;;;;;;;;;;;;;;;4997908;28;20270;-67
2023/11/02 00:21:05;;;;;;;;;;;;;;;;;;4998051;28;19960;-68
2023/11/02 00:23:30;;;;;;;;;;;;;;;;;;4997283;28;19914;-68
2023/11/02 00:25:57;;;;;;;;;;;;;;;;;;4997473;28;19917;-67
2023/11/02 00:28:22;;;;;;;;;;;;;;;;;;4997385;28;19914;-68
2023/11/02 00:30:50;;;;;;;;;;;;;;;;;;4997410;28;19914;-67
2023/11/02 00:33:15;;;;;;;;;;;;;;;;;;4997324;28;20441;-67
2023/11/02 00:35:40;;;;;;;;;;;;;;;;;;4997237;28;20011;-67
2023/11/02 00:38:05;;;;;;;;;;;;;;;;;;4996924;28;19991;-67
2023/11/02 00:40:30;;;;;;;;;;;;;;;;;;4996851;28;20394;-67
2023/11/02 00:42:56;;;;;;;;;;;;;;;;;;4997204;28;19910;-67
2023/11/02 00:45:21;;;;;;;;;;;;;;;;;;4997665;28;19914;-67
2023/11/02 00:47:47;;;;;;;;;;;;;;;;;;4997057;28;20270;-67
2023/11/02 00:50:12;;;;;;;;;;;;;;;;;;4997818;28;19917;-68
2023/11/02 00:52:37;;;;;;;;;;;;;;;;;;4996752;28;19980;-67
2023/11/02 00:55:03;;;;;;;;;;;;;;;;;;4996496;28;19910;-67
2023/11/02 00:57:28;;;;;;;;;;;;;;;;;;4996722;28;19910;-67
2023/11/02 00:59:53;;;;;;;;;;;;;;;;;;4996808;28;20306;-67
2023/11/02 01:02:19;;;;;;;;;;;;;;;;;;4997334;28;19917;-68
2023/11/02 01:04:44;;;;;;;;;;;;;;;;;;4997032;28;19910;-67
2023/11/02 01:07:09;;;;;;;;;;;;;;;;;;4997205;28;20378;-67
2023/11/02 01:09:34;;;;;;;;;;;;;;;;;;4996391;28;19933;-67
2023/11/02 01:11:59;;;;;;;;;;;;;;;;;;4996364;28;19910;-68
2023/11/02 01:14:24;;;;;;;;;;;;;;;;;;4996293;28;19910;-67
2023/11/02 01:16:50;;;;;;;;;;;;;;;;;;4996579;28;20311;-67
2023/11/02 01:19:15;;;;;;;;;;;;;;;;;;4996109;28;20329;-67
2023/11/02 01:21:40;;;;;;;;;;;;;;;;;;4996453;28;20277;-67
2023/11/02 01:24:06;;;;;;;;;;;;;;;;;;4997272;28;19910;-67
2023/11/02 01:26:31;;;;;;;;;;;;;;;;;;4996842;28;19913;-67
2023/11/02 01:28:56;;;;;;;;;;;;;;;;;;4996006;28;19964;-67
2023/11/02 01:31:21;;;;;;;;;;;;;;;;;;4996220;28;20362;-67
2023/11/02 01:33:47;;;;;;;;;;;;;;;;;;4996284;28;19910;-67
2023/11/02 01:36:12;;;;;;;;;;;;;;;;;;4996108;28;19996;-67
2023/11/02 01:38:38;;;;;;;;;;;;;;;;;;4996048;28;19909;-67
2023/11/02 01:41:03;;;;;;;;;;;;;;;;;;4995653;28;20367;-67
2023/11/02 01:43:28;;;;;;;;;;;;;;;;;;4995951;28;19910;-67
2023/11/02 01:45:53;;;;;;;;;;;;;;;;;;4995689;28;19916;-67
2023/11/02 01:48:19;;;;;;;;;;;;;;;;;;4995913;28;19909;-67
2023/11/02 01:50:44;;;;;;;;;;;;;;;;;;4995867;28;19909;-67
2023/11/02 01:53:10;;;;;;;;;;;;;;;;;;4995807;28;20337;-67
2023/11/02 01:55:35;;;;;;;;;;;;;;;;;;4995806;28;19910;-67
2023/11/02 01:58:00;;;;;;;;;;;;;;;;;;4995478;28;19956;-67
2023/11/02 02:00:25;;;;;;;;;;;;;;;;;;4995673;28;20012;-67
2023/11/02 02:02:50;;;;;;;;;;;;;;;;;;4995623;28;19933;-67
2023/11/02 02:05:15;;;;;;;;;;;;;;;;;;4995377;28;19964;-67
2023/11/02 02:07:40;;;;;;;;;;;;;;;;;;4995623;28;19910;-67
2023/11/02 02:10:11;;;;;;;;;;;;;;;;;;4995100;28;19960;-67
2023/11/02 02:12:36;;;;;;;;;;;;;;;;;;4995807;28;19956;-67
2023/11/02 02:15:02;;;;;;;;;;;;;;;;;;4995422;28;19910;-67
2023/11/02 02:17:28;;;;;;;;;;;;;;;;;;4996330;28;19910;-67
2023/11/02 02:19:53;;;;;;;;;;;;;;;;;;4995611;28;19932;-67
2023/11/02 02:22:18;;;;;;;;;;;;;;;;;;4995079;28;19910;-67
2023/11/02 02:24:43;;;;;;;;;;;;;;;;;;4995302;28;20366;-67
2023/11/02 02:27:08;;;;;;;;;;;;;;;;;;4995196;28;19910;-67
2023/11/02 02:29:33;;;;;;;;;;;;;;;;;;4994116;28;19917;-67
2023/11/02 02:31:58;;;;;;;;;;;;;;;;;;4995185;28;19910;-67
2023/11/02 02:34:24;;;;;;;;;;;;;;;;;;4995140;28;19968;-67
2023/11/02 02:36:49;;;;;;;;;;;;;;;;;;4994830;28;19914;-67
2023/11/02 02:39:14;;;;;;;;;;;;;;;;;;4994915;28;20354;-67
2023/11/02 02:41:39;;;;;;;;;;;;;;;;;;4995325;28;19945;-67
2023/11/02 02:44:04;;;;;;;;;;;;;;;;;;4995042;28;19910;-67
2023/11/02 02:46:31;;;;;;;;;;;;;;;;;;4994058;28;19917;-67
2023/11/02 02:48:56;;;;;;;;;;;;;;;;;;4995001;28;19916;-67
2023/11/02 02:51:21;;;;;;;;;;;;;;;;;;4995781;28;19914;-67
2023/11/02 02:53:47;;;;;;;;;;;;;;;;;;4994878;28;19957;-67
2023/11/02 02:56:12;;;;;;;;;;;;;;;;;;4994860;28;19910;-67
2023/11/02 02:58:37;;;;;;;;;;;;;;;;;;4995455;28;19910;-68
2023/11/02 03:01:02;;;;;;;;;;;;;;;;;;4994808;28;19924;-67
2023/11/02 03:03:27;;;;;;;;;;;;;;;;;;4994829;28;19968;-67
2023/11/02 03:05:53;;;;;;;;;;;;;;;;;;4995408;28;19925;-67
2023/11/02 03:08:18;;;;;;;;;;;;;;;;;;4995052;28;19949;-67
2023/11/02 03:10:43;;;;;;;;;;;;;;;;;;4995021;28;19909;-68
2023/11/02 03:13:08;;;;;;;;;;;;;;;;;;4995524;28;19916;-67
2023/11/02 03:15:33;;;;;;;;;;;;;;;;;;4994702;28;19910;-67
2023/11/02 03:17:58;;;;;;;;;;;;;;;;;;4994695;28;19940;-67
2023/11/02 03:20:25;;;;;;;;;;;;;;;;;;4994895;28;19917;-67
2023/11/02 03:22:50;;;;;;;;;;;;;;;;;;4998580;28;19960;-67
2023/11/02 03:25:15;;;;;;;;;;;;;;;;;;4998333;28;20283;-67
2023/11/02 03:27:40;;;;;;;;;;;;;;;;;;4998836;28;19916;-68
2023/11/02 03:30:06;;;;;;;;;;;;;;;;;;4998279;28;19909;-67
2023/11/02 03:32:31;;;;;;;;;;;;;;;;;;4998436;28;20351;-68
2023/11/02 03:34:56;;;;;;;;;;;;;;;;;;4998615;28;19917;-67
2023/11/02 03:37:22;;;;;;;;;;;;;;;;;;4998020;28;20363;-67
2023/11/02 03:39:47;;;;;;;;;;;;;;;;;;4998835;28;20019;-68
2023/11/02 03:42:12;;;;;;;;;;;;;;;;;;4998272;28;19914;-68
2023/11/02 03:44:37;;;;;;;;;;;;;;;;;;4997184;28;20462;-68
2023/11/02 03:47:02;;;;;;;;;;;;;;;;;;4998269;28;19914;-67
2023/11/02 03:49:27;;;;;;;;;;;;;;;;;;4998097;28;19910;-67
2023/11/02 03:51:57;;;;;;;;;;;;;;;;;;4998425;28;20339;-67
2023/11/02 03:54:23;;;;;;;;;;;;;;;;;;4998866;28;20349;-68
2023/11/02 03:56:48;;;;;;;;;;;;;;;;;;4998063;28;19921;-67
2023/11/02 03:59:13;;;;;;;;;;;;;;;;;;4997834;28;20008;-68
2023/11/02 04:01:38;;;;;;;;;;;;;;;;;;4997652;28;19909;-68
2023/11/02 04:04:03;;;;;;;;;;;;;;;;;;4997624;28;19910;-67
2023/11/02 04:06:29;;;;;;;;;;;;;;;;;;4998164;28;20369;-67
2023/11/02 04:08:54;;;;;;;;;;;;;;;;;;4997455;28;19917;-68
2023/11/02 04:11:19;;;;;;;;;;;;;;;;;;4997800;28;20363;-68
2023/11/02 04:13:44;;;;;;;;;;;;;;;;;;4997775;28;19916;-67
2023/11/02 04:16:09;;;;;;;;;;;;;;;;;;4998469;28;19909;-67
2023/11/02 04:18:34;;;;;;;;;;;;;;;;;;4996390;28;20279;-67
2023/11/02 04:20:59;;;;;;;;;;;;;;;;;;4997613;28;19918;-68
2023/11/02 04:23:25;;;;;;;;;;;;;;;;;;4997557;28;19956;-68
2023/11/02 04:25:50;;;;;;;;;;;;;;;;;;4997489;28;20363;-67
2023/11/02 04:28:15;;;;;;;;;;;;;;;;;;4998251;28;19932;-67
2023/11/02 04:30:41;;;;;;;;;;;;;;;;;;4997411;28;20008;-67
2023/11/02 04:33:06;;;;;;;;;;;;;;;;;;4996626;28;19916;-67
2023/11/02 04:35:31;;;;;;;;;;;;;;;;;;4997068;28;19913;-67
2023/11/02 04:37:57;;;;;;;;;;;;;;;;;;4997255;28;19910;-67
2023/11/02 04:40:22;;;;;;;;;;;;;;;;;;4997124;28;19922;-67
2023/11/02 04:42:47;;;;;;;;;;;;;;;;;;4996906;28;19952;-67
2023/11/02 04:45:12;;;;;;;;;;;;;;;;;;4997131;28;19917;-67
2023/11/02 04:47:37;;;;;;;;;;;;;;;;;;4997692;28;19909;-67
2023/11/02 04:50:02;;;;;;;;;;;;;;;;;;4996793;28;19917;-67
2023/11/02 04:52:27;;;;;;;;;;;;;;;;;;4995866;28;19910;-67
2023/11/02 04:54:53;;;;;;;;;;;;;;;;;;4996699;28;20432;-68
2023/11/02 04:57:18;;;;;;;;;;;;;;;;;;4996568;28;19910;-67
2023/11/02 04:59:43;;;;;;;;;;;;;;;;;;4996918;28;19988;-67
2023/11/02 05:02:08;;;;;;;;;;;;;;;;;;4996841;28;20315;-67
2023/11/02 05:04:33;;;;;;;;;;;;;;;;;;4997106;28;19964;-68
2023/11/02 05:06:59;;;;;;;;;;;;;;;;;;4996468;28;20363;-67
2023/11/02 05:09:25;;;;;;;;;;;;;;;;;;4996950;28;19909;-67
2023/11/02 05:11:50;;;;;;;;;;;;;;;;;;4996555;28;19964;-67
2023/11/02 05:14:16;;;;;;;;;;;;;;;;;;4995340;28;19910;-68
2023/11/02 05:16:41;;;;;;;;;;;;;;;;;;4996540;28;19997;-67
2023/11/02 05:19:06;;;;;;;;;;;;;;;;;;4996451;28;20018;-67
2023/11/02 05:21:31;;;;;;;;;;;;;;;;;;4996457;28;19921;-68
2023/11/02 05:23:56;;;;;;;;;;;;;;;;;;4996114;28;19917;-67
2023/11/02 05:26:22;;;;;;;;;;;;;;;;;;4996369;28;20340;-67
2023/11/02 05:28:47;;;;;;;;;;;;;;;;;;4996904;28;20056;-67
2023/11/02 05:31:12;;;;;;;;;;;;;;;;;;4996780;28;19910;-67
2023/11/02 05:33:37;;;;;;;;;;;;;;;;;;4996222;28;20367;-67
2023/11/02 05:36:03;;;;;;;;;;;;;;;;;;4996119;28;20383;-68
2023/11/02 05:38:29;;;;;;;;;;;;;;;;;;4996159;28;19909;-67
2023/11/02 05:40:54;;;;;;;;;;;;;;;;;;4995774;28;19921;-68
2023/11/02 05:43:19;;;;;;;;;;;;;;;;;;4995388;28;20413;-67
2023/11/02 05:45:44;;;;;;;;;;;;;;;;;;4996366;28;20001;-68
2023/11/02 05:48:09;;;;;;;;;;;;;;;;;;4995950;28;19917;-68
2023/11/02 05:50:34;;;;;;;;;;;;;;;;;;4995606;28;20315;-67
2023/11/02 05:53:00;;;;;;;;;;;;;;;;;;4996270;28;19910;-67
2023/11/02 05:55:25;;;;;;;;;;;;;;;;;;4995806;28;20350;-67
2023/11/02 05:57:50;;;;;;;;;;;;;;;;;;4995408;28;20371;-67
2023/11/02 06:00:16;;;;;;;;;;;;;;;;;;4995998;28;19922;-67
2023/11/02 06:02:41;;;;;;;;;;;;;;;;;;4996220;28;19916;-67
2023/11/02 06:05:06;;;;;;;;;;;;;;;;;;4995408;28;19910;-67
2023/11/02 06:07:31;;;;;;;;;;;;;;;;;;4995915;28;19918;-67
2023/11/02 06:09:57;;;;;;;;;;;;;;;;;;4995817;28;19964;-67
2023/11/02 06:12:23;;;;;;;;;;;;;;;;;;4995241;28;19914;-67
2023/11/02 06:14:48;;;;;;;;;;;;;;;;;;4995765;28;19918;-68
2023/11/02 06:17:13;;;;;;;;;;;;;;;;;;4995023;28;19930;-68
2023/11/02 06:19:38;;;;;;;;;;;;;;;;;;4995094;28;19941;-67
2023/11/02 06:22:03;;;;;;;;;;;;;;;;;;4995121;28;20248;-67
2023/11/02 06:24:28;;;;;;;;;;;;;;;;;;4995355;28;19917;-68
2023/11/02 06:26:53;;;;;;;;;;;;;;;;;;4995255;28;19911;-68
2023/11/02 06:29:20;;;;;;;;;;;;;;;;;;4995287;28;19917;-67
2023/11/02 06:31:45;;;;;;;;;;;;;;;;;;4994888;28;19909;-68
2023/11/02 06:34:11;;;;;;;;;;;;;;;;;;4995760;28;20052;-67
2023/11/02 06:36:36;;;;;;;;;;;;;;;;;;4995163;28;19910;-67
2023/11/02 06:39:01;;;;;;;;;;;;;;;;;;4994626;28;20394;-68
2023/11/02 06:41:26;;;;;;;;;;;;;;;;;;4995082;28;19917;-67
2023/11/02 06:43:51;;;;;;;;;;;;;;;;;;4995333;28;19961;-67
2023/11/02 06:46:16;;;;;;;;;;;;;;;;;;4995236;28;19909;-68
2023/11/02 06:48:42;;;;;;;;;;;;;;;;;;4995569;28;19914;-67
2023/11/02 06:51:07;;;;;;;;;;;;;;;;;;4994693;28;19910;-67
2023/11/02 06:53:33;;;;;;;;;;;;;;;;;;4995096;28;19910;-67
2023/11/02 06:55:58;;;;;;;;;;;;;;;;;;4995618;28;19932;-67
2023/11/02 06:58:23;;;;;;;;;;;;;;;;;;4994888;28;19910;-67
2023/11/02 07:00:48;;;;;;;;;;;;;;;;;;4993567;28;20432;-67
2023/11/02 07:03:13;;;;;;;;;;;;;;;;;;4995150;28;19909;-67
2023/11/02 07:05:38;;;;;;;;;;;;;;;;;;4994760;28;20310;-67
2023/11/02 07:08:04;;;;;;;;;;;;;;;;;;4994513;28;19910;-67
2023/11/02 07:10:31;;;;;;;;;;;;;;;;;;4994480;28;19910;-67
2023/11/02 07:12:56;;;;;;;;;;;;;;;;;;4995013;28;19932;-68
2023/11/02 07:15:22;;;;;;;;;;;;;;;;;;4994719;28;20417;-68
2023/11/02 07:17:48;;;;;;;;;;;;;;;;;;4994958;28;20382;-68
2023/11/02 07:20:13;;;;;;;;;;;;;;;;;;4994328;28;19918;-68
2023/11/02 07:22:38;;;;;;;;;;;;;;;;;;4994320;28;20260;-67
2023/11/02 07:25:03;;;;;;;;;;;;;;;;;;4994698;28;19909;-68
2023/11/02 07:27:29;;;;;;;;;;;;;;;;;;4994592;28;19910;-67
2023/11/02 07:29:54;;;;;;;;;;;;;;;;;;4994651;28;19969;-67
2023/11/02 07:32:20;;;;;;;;;;;;;;;;;;4994345;28;19910;-67
2023/11/02 07:34:45;;;;;;;;;;;;;;;;;;4994517;28;19910;-67
2023/11/02 07:37:10;;;;;;;;;;;;;;;;;;4994490;28;20267;-67
2023/11/02 07:39:35;;;;;;;;;;;;;;;;;;4994907;28;20028;-67
2023/11/02 07:42:02;;;;;;;;;;;;;;;;;;4994562;28;19910;-67
2023/11/02 07:44:27;;;;;;;;;;;;;;;;;;4994553;28;19910;-67
2023/11/02 07:46:52;;;;;;;;;;;;;;;;;;4995577;28;20012;-68
2023/11/02 07:49:17;;;;;;;;;;;;;;;;;;4994731;28;20302;-67
2023/11/02 07:51:42;;;;;;;;;;;;;;;;;;4993976;28;19917;-67
2023/11/02 07:54:08;;;;;;;;;;;;;;;;;;4994375;28;19909;-68
2023/11/02 07:56:33;;;;;;;;;;;;;;;;;;4994395;28;19914;-67
2023/11/02 07:58:58;;;;;;;;;;;;;;;;;;4994245;28;19988;-67
2023/11/02 08:01:24;;;;;;;;;;;;;;;;;;4994586;28;19918;-67
2023/11/02 08:03:49;;;;;;;;;;;;;;;;;;4994341;28;19996;-68
2023/11/02 08:06:14;;;;;;;;;;;;;;;;;;4994028;28;19910;-67
2023/11/02 08:08:40;;;;;;;;;;;;;;;;;;4997753;28;20274;-68
2023/11/02 08:11:05;;;;;;;;;;;;;;;;;;4998345;28;19917;-68
2023/11/02 08:13:30;;;;;;;;;;;;;;;;;;4997764;28;20275;-68
2023/11/02 08:15:55;;;;;;;;;;;;;;;;;;4997436;28;20298;-68
2023/11/02 08:18:22;;;;;;;;;;;;;;;;;;4996752;28;19909;-68
2023/11/02 08:20:48;;;;;;;;;;;;;;;;;;4997529;28;19924;-68
2023/11/02 08:23:14;;;;;;;;;;;;;;;;;;4997224;28;20322;-69
2023/11/02 08:25:39;;;;;;;;;;;;;;;;;;4997408;28;19916;-68
2023/11/02 08:28:04;;;;;;;;;;;;;;;;;;4997401;28;19910;-68
2023/11/02 08:30:29;;;;;;;;;;;;;;;;;;4996234;28;19917;-68
2023/11/02 08:32:54;;;;;;;;;;;;;;;;;;4997078;28;19917;-67
2023/11/02 08:35:21;;;;;;;;;;;;;;;;;;4998159;28;19993;-68
2023/11/02 08:37:46;;;;;;;;;;;;;;;;;;4997415;28;20008;-68
2023/11/02 08:40:11;;;;;;;;;;;;;;;;;;4997026;28;20395;-68
2023/11/02 08:42:37;;;;;;;;;;;;;;;;;;4997918;28;19913;-68
2023/11/02 08:45:02;;;;;;;;;;;;;;;;;;4997128;28;19917;-68
2023/11/02 08:47:28;;;;;;;;;;;;;;;;;;4997379;28;19916;-68
2023/11/02 08:49:53;;;;;;;;;;;;;;;;;;4997070;28;19917;-67
2023/11/02 08:52:18;;;;;;;;;;;;;;;;;;4997060;28;19910;-65
2023/11/02 08:54:43;;;;;;;;;;;;;;;;;;4996995;28;20335;-65
2023/11/02 08:57:08;;;;;;;;;;;;;;;;;;4996714;28;19910;-65
2023/11/02 08:59:34;;;;;;;;;;;;;;;;;;4997017;28;19952;-66
2023/11/02 09:01:59;;;;;;;;;;;;;;;;;;4997461;28;19909;-68
2023/11/02 09:04:24;;;;;;;;;;;;;;;;;;4996784;28;19910;-68
2023/11/02 09:06:49;;;;;;;;;;;;;;;;;;4996816;28;19910;-67
2023/11/02 09:09:14;;;;;;;;;;;;;;;;;;4995626;28;19937;-68
2023/11/02 09:11:40;;;;;;;;;;;;;;;;;;4996418;28;19910;-67
2023/11/02 09:14:05;;;;;;;;;;;;;;;;;;4996801;28;20355;-68
2023/11/02 09:16:31;;;;;;;;;;;;;;;;;;4996096;28;19910;-67
2023/11/02 09:18:58;;;;;;;;;;;;;;;;;;4996490;28;19910;-67
2023/11/02 09:21:23;;;;;;;;;;;;;;;;;;4996175;28;19969;-67
2023/11/02 09:23:48;;;;;;;;;;;;;;;;;;4996818;28;19917;-68
2023/11/02 09:26:13;;;;;;;;;;;;;;;;;;4996719;28;19910;-67
2023/11/02 09:28:38;;;;;;;;;;;;;;;;;;4996087;28;19910;-67
2023/11/02 09:31:04;;;;;;;;;;;;;;;;;;4996334;28;19924;-67
2023/11/02 09:33:29;;;;;;;;;;;;;;;;;;4996788;28;19910;-67
2023/11/02 09:35:54;;;;;;;;;;;;;;;;;;4996507;28;19910;-68
2023/11/02 09:38:19;;;;;;;;;;;;;;;;;;4995844;28;20367;-68
2023/11/02 09:40:44;;;;;;;;;;;;;;;;;;4996025;28;20347;-67
2023/11/02 09:43:10;;;;;;;;;;;;;;;;;;4996386;28;19910;-67
2023/11/02 09:45:36;;;;;;;;;;;;;;;;;;4996051;28;20001;-67
2023/11/02 09:48:02;;;;;;;;;;;;;;;;;;4996009;28;19920;-67
2023/11/02 09:50:27;;;;;;;;;;;;;;;;;;4995675;28;19910;-67
2023/11/02 09:52:52;;;;;;;;;;;;;;;;;;4995822;28;19909;-67
2023/11/02 09:55:17;;;;;;;;;;;;;;;;;;4995818;28;19910;-67
2023/11/02 09:57:43;;;;;;;;;;;;;;;;;;4995592;28;20273;-67
2023/11/02 10:00:08;;;;;;;;;;;;;;;;;;4996064;28;19922;-67
2023/11/02 10:02:33;;;;;;;;;;;;;;;;;;4995741;28;20427;-67
2023/11/02 10:04:59;;;;;;;;;;;;;;;;;;4995690;28;20282;-68
2023/11/02 10:07:24;;;;;;;;;;;;;;;;;;4996441;28;19909;-68
2023/11/02 10:09:50;;;;;;;;;;;;;;;;;;4996210;28;19910;-68
2023/11/02 10:12:15;;;;;;;;;;;;;;;;;;4996119;28;19916;-68
2023/11/02 10:14:40;;;;;;;;;;;;;;;;;;4996025;28;19910;-68
2023/11/02 10:17:05;;;;;;;;;;;;;;;;;;4995398;28;19957;-68
2023/11/02 10:19:30;;;;;;;;;;;;;;;;;;4995100;28;19925;-68
2023/11/02 10:21:55;;;;;;;;;;;;;;;;;;4995076;28;19949;-68
2023/11/02 10:24:20;;;;;;;;;;;;;;;;;;4995379;28;19980;-68
2023/11/02 10:26:45;;;;;;;;;;;;;;;;;;4995379;28;19914;-68
2023/11/02 10:29:11;;;;;;;;;;;;;;;;;;4994216;28;19916;-68
2023/11/02 10:31:36;;;;;;;;;;;;;;;;;;4994698;28;20363;-68
2023/11/02 10:34:01;;;;;;;;;;;;;;;;;;4995168;28;19968;-68
2023/11/02 10:36:27;;;;;;;;;;;;;;;;;;4995111;28;19909;-68
2023/11/02 10:38:52;;;;;;;;;;;;;;;;;;4994757;28;19914;-68
2023/11/02 10:41:17;;;;;;;;;;;;;;;;;;4995104;28;20323;-68
2023/11/02 10:43:42;;;;;;;;;;;;;;;;;;4995091;28;19914;-68
2023/11/02 10:46:07;;;;;;;;;;;;;;;;;;4995006;28;19916;-68
2023/11/02 10:48:33;;;;;;;;;;;;;;;;;;4994729;28;19910;-68
2023/11/02 10:50:58;;;;;;;;;;;;;;;;;;4994687;28;19910;-68
2023/11/02 10:53:23;;;;;;;;;;;;;;;;;;4994691;28;20359;-68
2023/11/02 10:55:48;;;;;;;;;;;;;;;;;;4994931;28;19914;-68
2023/11/02 10:58:13;;;;;;;;;;;;;;;;;;4994983;28;19932;-68
2023/11/02 11:00:39;;;;;;;;;;;;;;;;;;4995182;28;19922;-68
2023/11/02 11:03:06;;;;;;;;;;;;;;;;;;4994804;28;19910;-68
2023/11/02 11:05:32;;;;;;;;;;;;;;;;;;4995103;28;19909;-68
2023/11/02 11:08:02;;;;;;;;;;;;;;;;;;4994759;28;19917;-68
2023/11/02 11:10:27;;;;;;;;;;;;;;;;;;4994726;28;19910;-68
2023/11/02 11:12:52;;;;;;;;;;;;;;;;;;4994812;28;20012;-68
2023/11/02 11:15:19;;;;;;;;;;;;;;;;;;4994506;28;20052;-68
2023/11/02 11:17:44;;;;;;;;;;;;;;;;;;4994459;28;19917;-68
2023/11/02 11:20:09;;;;;;;;;;;;;;;;;;4994596;28;19918;-68
2023/11/02 11:22:34;;;;;;;;;;;;;;;;;;4994450;28;19910;-68
2023/11/02 11:24:59;;;;;;;;;;;;;;;;;;4994395;28;20397;-68
2023/11/02 11:27:25;;;;;;;;;;;;;;;;;;4995227;28;19914;-68
2023/11/02 11:29:50;;;;;;;;;;;;;;;;;;4994574;28;19916;-68
2023/11/02 11:32:16;;;;;;;;;;;;;;;;;;4994916;28;19909;-68
2023/11/02 11:34:41;;;;;;;;;;;;;;;;;;4995137;28;19910;-68
2023/11/02 11:37:06;;;;;;;;;;;;;;;;;;4993288;28;19910;-68
2023/11/02 11:39:31;;;;;;;;;;;;;;;;;;4994393;28;19922;-69
2023/11/02 11:41:56;;;;;;;;;;;;;;;;;;4995294;28;20343;-68
2023/11/02 11:44:21;;;;;;;;;;;;;;;;;;4998882;28;19921;-68
2023/11/02 11:46:47;;;;;;;;;;;;;;;;;;4998192;28;19910;-68
2023/11/02 11:49:12;;;;;;;;;;;;;;;;;;4997920;28;19914;-68
2023/11/02 11:51:42;;;;;;;;;;;;;;;;;;4998664;28;19933;-68
2023/11/02 11:54:07;;;;;;;;;;;;;;;;;;4997718;28;19910;-68
2023/11/02 11:56:33;;;;;;;;;;;;;;;;;;4998243;28;20259;-68
2023/11/02 11:58:58;;;;;;;;;;;;;;;;;;4997654;28;19929;-68
2023/11/02 12:01:23;;;;;;;;;;;;;;;;;;4997739;28;19917;-68
2023/11/02 12:03:48;;;;;;;;;;;;;;;;;;4997656;28;19933;-68
2023/11/02 12:06:13;;;;;;;;;;;;;;;;;;4997623;28;19914;-68
2023/11/02 12:08:38;;;;;;;;;;;;;;;;;;4998157;28;19909;-68
2023/11/02 12:11:04;;;;;;;;;;;;;;;;;;4998077;28;19909;-68
2023/11/02 12:13:29;;;;;;;;;;;;;;;;;;4997552;28;19917;-68
2023/11/02 12:15:54;;;;;;;;;;;;;;;;;;4997758;28;19978;-68
2023/11/02 12:18:19;;;;;;;;;;;;;;;;;;4997723;28;20279;-68
2023/11/02 12:20:44;;;;;;;;;;;;;;;;;;4997333;28;19926;-68
2023/11/02 12:23:12;;;;;;;;;;;;;;;;;;4997662;28;19980;-68
2023/11/02 12:25:37;;;;;;;;;;;;;;;;;;4997506;28;19910;-68
2023/11/02 12:28:03;;;;;;;;;;;;;;;;;;4997520;28;19910;-68
2023/11/02 12:30:28;;;;;;;;;;;;;;;;;;4997478;28;20384;-68
2023/11/02 12:32:53;;;;;;;;;;;;;;;;;;4997153;28;20398;-68
2023/11/02 12:35:21;;;;;;;;;;;;;;;;;;4997726;28;19914;-68
2023/11/02 12:37:47;;;;;;;;;;;;;;;;;;4997192;28;19917;-68
2023/11/02 12:40:12;;;;;;;;;;;;;;;;;;4997130;28;19921;-68
2023/11/02 12:42:38;;;;;;;;;;;;;;;;;;4997824;28;20000;-68
2023/11/02 12:45:04;;;;;;;;;;;;;;;;;;4997221;28;19917;-68
2023/11/02 12:47:29;;;;;;;;;;;;;;;;;;4997513;28;20309;-68
2023/11/02 12:49:55;;;;;;;;;;;;;;;;;;4996822;28;19997;-68
2023/11/02 12:52:20;;;;;;;;;;;;;;;;;;4996914;28;19913;-68
2023/11/02 12:54:45;;;;;;;;;;;;;;;;;;4996565;28;19932;-69
2023/11/02 12:57:10;;;;;;;;;;;;;;;;;;4997002;28;19957;-68
2023/11/02 12:59:35;;;;;;;;;;;;;;;;;;4996903;28;19929;-68
2023/11/02 13:02:02;;;;;;;;;;;;;;;;;;4996865;28;19910;-68
2023/11/02 13:04:34;;;;;;;;;;;;;;;;;;4996832;28;19933;-68
2023/11/02 13:06:59;;;;;;;;;;;;;;;;;;4997126;28;19930;-68
2023/11/02 13:09:26;;;;;;;;;;;;;;;;;;4997077;28;20358;-69
2023/11/02 13:11:52;;;;;;;;;;;;;;;;;;4996678;28;19916;-68
2023/11/02 13:14:17;;;;;;;;;;;;;;;;;;4996494;28;19997;-68
2023/11/02 13:16:42;;;;;;;;;;;;;;;;;;4997156;28;19914;-68
2023/11/02 13:19:08;;;;;;;;;;;;;;;;;;4996335;28;20436;-68
2023/11/02 13:21:33;;;;;;;;;;;;;;;;;;4996257;28;19918;-68
2023/11/02 13:23:58;;;;;;;;;;;;;;;;;;4996426;28;19910;-68
2023/11/02 13:26:23;;;;;;;;;;;;;;;;;;4996208;28;19942;-68
2023/11/02 13:28:49;;;;;;;;;;;;;;;;;;4996422;28;20270;-68
2023/11/02 13:31:14;;;;;;;;;;;;;;;;;;4996322;28;20377;-68
2023/11/02 13:33:40;;;;;;;;;;;;;;;;;;4997140;28;20033;-68
2023/11/02 13:36:06;;;;;;;;;;;;;;;;;;4996789;28;20240;-68
2023/11/02 13:38:31;;;;;;;;;;;;;;;;;;4995810;28;19997;-68
2023/11/02 13:40:56;;;;;;;;;;;;;;;;;;4995796;28;19949;-68
2023/11/02 13:43:21;;;;;;;;;;;;;;;;;;4996297;28;20302;-68
2023/11/02 13:45:46;;;;;;;;;;;;;;;;;;4996442;28;19916;-68
2023/11/02 13:48:12;;;;;;;;;;;;;;;;;;4996174;28;19920;-68
2023/11/02 13:50:37;;;;;;;;;;;;;;;;;;4996014;28;20351;-69
2023/11/02 13:53:02;;;;;;;;;;;;;;;;;;4996509;28;19910;-68
2023/11/02 13:55:28;;;;;;;;;;;;;;;;;;4996088;28;20266;-68
2023/11/02 13:57:53;;;;;;;;;;;;;;;;;;4996128;28;19910;-69
2023/11/02 14:00:19;;;;;;;;;;;;;;;;;;4995880;28;19928;-68
2023/11/02 14:02:44;;;;;;;;;;;;;;;;;;4995403;28;19910;-68
2023/11/02 14:05:10;;;;;;;;;;;;;;;;;;4995021;28;19925;-68
2023/11/02 14:07:35;;;;;;;;;;;;;;;;;;4995937;28;20345;-68
2023/11/02 14:10:00;;;;;;;;;;;;;;;;;;4995250;28;20256;-68
2023/11/02 14:12:25;;;;;;;;;;;;;;;;;;4995220;28;20001;-70
2023/11/02 14:14:50;;;;;;;;;;;;;;;;;;4995553;28;19909;-66
2023/11/02 14:17:16;;;;;;;;;;;;;;;;;;4996282;28;19964;-66
2023/11/02 14:19:41;;;;;;;;;;;;;;;;;;4995150;28;20329;-66
2023/11/02 14:22:06;;;;;;;;;;;;;;;;;;4995690;28;19952;-66
2023/11/02 14:24:31;;;;;;;;;;;;;;;;;;4994205;28;19920;-71
2023/11/02 14:26:56;;;;;;;;;;;;;;;;;;4995360;28;19945;-68
2023/11/02 14:29:21;;;;;;;;;;;;;;;;;;4995042;28;19913;-69
2023/11/02 14:31:46;;;;;;;;;;;;;;;;;;4995282;28;20378;-68
2023/11/02 14:34:12;;;;;;;;;;;;;;;;;;4995267;28;19914;-68
2023/11/02 14:36:37;;;;;;;;;;;;;;;;;;4995107;28;19949;-68
2023/11/02 14:39:03;;;;;;;;;;;;;;;;;;4995667;28;19913;-68
2023/11/02 14:41:29;;;;;;;;;;;;;;;;;;4994756;28;19918;-68
2023/11/02 14:43:55;;;;;;;;;;;;;;;;;;4995755;28;19964;-68
2023/11/02 14:46:20;;;;;;;;;;;;;;;;;;4995025;28;20319;-68
2023/11/02 14:48:45;;;;;;;;;;;;;;;;;;4994745;28;19948;-68
2023/11/02 14:51:10;;;;;;;;;;;;;;;;;;4994922;28;19909;-68
2023/11/02 14:53:35;;;;;;;;;;;;;;;;;;4994710;28;19956;-68
2023/11/02 14:56:01;;;;;;;;;;;;;;;;;;4994592;28;19916;-68
2023/11/02 14:58:26;;;;;;;;;;;;;;;;;;4995544;28;19945;-68
2023/11/02 15:00:52;;;;;;;;;;;;;;;;;;4994621;28;19921;-68
2023/11/02 15:03:18;;;;;;;;;;;;;;;;;;4994894;28;19910;-68
2023/11/02 15:05:43;;;;;;;;;;;;;;;;;;4994854;28;19910;-68
2023/11/02 15:08:09;;;;;;;;;;;;;;;;;;4994805;28;19910;-68
2023/11/02 15:10:34;;;;;;;;;;;;;;;;;;4995224;28;20409;-68
2023/11/02 15:12:59;;;;;;;;;;;;;;;;;;4995069;28;19964;-68
2023/11/02 15:15:24;;;;;;;;;;;;;;;;;;4994807;28;19917;-68
2023/11/02 15:17:49;;;;;;;;;;;;;;;;;;4999079;28;20363;-68
2023/11/02 15:20:17;;;;;;;;;;;;;;;;;;4998706;28;19918;-68
2023/11/02 15:22:42;;;;;;;;;;;;;;;;;;4998650;28;20012;-68
2023/11/02 15:25:08;;;;;;;;;;;;;;;;;;4998622;28;19980;-68
2023/11/02 15:27:34;;;;;;;;;;;;;;;;;;4998210;28;19917;-69
2023/11/02 15:29:59;;;;;;;;;;;;;;;;;;4998633;28;19910;-68
2023/11/02 15:32:24;;;;;;;;;;;;;;;;;;4998495;28;19910;-69
2023/11/02 15:34:54;;;;;;;;;;;;;;;;;;4997780;28;19916;-69
2023/11/02 15:37:19;;;;;;;;;;;;;;;;;;4998058;28;19910;-68
2023/11/02 15:39:45;;;;;;;;;;;;;;;;;;4998339;28;19922;-68
2023/11/02 15:42:10;;;;;;;;;;;;;;;;;;4998269;28;19910;-68
2023/11/02 15:44:35;;;;;;;;;;;;;;;;;;4998338;28;20421;-68
2023/11/02 15:47:00;;;;;;;;;;;;;;;;;;4998204;28;19910;-67
2023/11/02 15:49:25;;;;;;;;;;;;;;;;;;4998198;28;20020;-68
2023/11/02 15:51:51;;;;;;;;;;;;;;;;;;4998516;28;19949;-68
2023/11/02 15:54:17;;;;;;;;;;;;;;;;;;4998930;28;19909;-68
2023/11/02 15:56:42;;;;;;;;;;;;;;;;;;4997844;28;19921;-68
2023/11/02 15:59:08;;;;;;;;;;;;;;;;;;4998202;28;19949;-68
2023/11/02 16:01:33;;;;;;;;;;;;;;;;;;4997895;28;20278;-68
2023/11/02 16:03:58;;;;;;;;;;;;;;;;;;4998556;28;19997;-67
2023/11/02 16:06:23;;;;;;;;;;;;;;;;;;4998348;28;19953;-67
2023/11/02 16:08:48;;;;;;;;;;;;;;;;;;4998196;28;19910;-67
2023/11/02 16:11:14;;;;;;;;;;;;;;;;;;4997934;28;20339;-68
2023/11/02 16:13:39;;;;;;;;;;;;;;;;;;4997602;28;19956;-69
2023/11/02 16:16:04;;;;;;;;;;;;;;;;;;4998113;28;20442;-63
2023/11/02 16:18:29;;;;;;;;;;;;;;;;;;4998008;28;19914;-63
2023/11/02 16:20:54;;;;;;;;;;;;;;;;;;4998166;28;19924;-63
2023/11/02 16:23:19;;;;;;;;;;;;;;;;;;4997532;28;19913;-68
2023/11/02 16:25:45;;;;;;;;;;;;;;;;;;4997139;28;19910;-68
